AUA52HS LIML-LOWW
Flight info
| Callsign | AUA52HS |
|---|---|
| Flight time | 1h 3m |
| Altitude | 34000 |
| Route | NESTI DCT ARALD/N0439F330 DCT ABTAN |
| Aircraft | A320/M-SDE3FGHIRWY/LB1 |
Departure
| Time | 2026-04-22 10:15 |
|---|---|
| Airport | Milano Linate Airport (LIML) |
Arrival
| Time | 2026-04-22 11:18 |
|---|---|
| Airport | Vienna International Airport (LOWW) |
| Time | Latitude | Longitude | Altitude | Speed | Heading |
|---|---|---|---|---|---|
| 2026-04-22 09:17 | 45.45975 | 9.27903 | 360 ft | 0 kts | 360° |
| 2026-04-22 09:48 | 45.45966 | 9.27903 | 363 ft | 4 kts | 358° |
| 2026-04-22 09:48 | 45.45944 | 9.27904 | 360 ft | 3 kts | 360° |
| 2026-04-22 09:48 | 45.45919 | 9.27910 | 363 ft | 4 kts | 321° |
| 2026-04-22 09:49 | 45.45907 | 9.27939 | 363 ft | 3 kts | 272° |
| 2026-04-22 09:49 | 45.45907 | 9.27946 | 360 ft | 0 kts | 270° |
| 2026-04-22 09:55 | 45.45907 | 9.27905 | 360 ft | 7 kts | 270° |
| 2026-04-22 09:55 | 45.45908 | 9.27843 | 361 ft | 6 kts | 271° |
| 2026-04-22 09:55 | 45.45925 | 9.27781 | 360 ft | 0 kts | 304° |
| 2026-04-22 09:56 | 45.45926 | 9.27781 | 360 ft | 1 kts | 310° |
| 2026-04-22 09:58 | 45.45915 | 9.27798 | 363 ft | 2 kts | 311° |
| 2026-04-22 09:58 | 45.45905 | 9.27819 | 360 ft | 2 kts | 283° |
| 2026-04-22 09:58 | 45.45903 | 9.27843 | 361 ft | 2 kts | 266° |
| 2026-04-22 09:59 | 45.45904 | 9.27867 | 360 ft | 3 kts | 266° |
| 2026-04-22 09:59 | 45.45906 | 9.27892 | 365 ft | 3 kts | 270° |
| 2026-04-22 09:59 | 45.45905 | 9.27917 | 360 ft | 2 kts | 270° |
| 2026-04-22 09:59 | 45.45905 | 9.27941 | 365 ft | 3 kts | 270° |
| 2026-04-22 10:00 | 45.45905 | 9.27966 | 363 ft | 3 kts | 270° |
| 2026-04-22 10:00 | 45.45905 | 9.27991 | 360 ft | 3 kts | 270° |
| 2026-04-22 10:00 | 45.45905 | 9.28016 | 362 ft | 2 kts | 270° |
| 2026-04-22 10:00 | 45.45905 | 9.28028 | 360 ft | 0 kts | 270° |
| 2026-04-22 10:07 | 45.45888 | 9.27989 | 364 ft | 10 kts | 212° |
| 2026-04-22 10:08 | 45.45825 | 9.27984 | 361 ft | 8 kts | 179° |
| 2026-04-22 10:08 | 45.45756 | 9.27983 | 362 ft | 14 kts | 181° |
| 2026-04-22 10:08 | 45.45640 | 9.27981 | 360 ft | 18 kts | 180° |
| 2026-04-22 10:08 | 45.45509 | 9.27978 | 360 ft | 20 kts | 180° |
| 2026-04-22 10:09 | 45.45392 | 9.27975 | 360 ft | 11 kts | 190° |
| 2026-04-22 10:09 | 45.45299 | 9.27915 | 362 ft | 21 kts | 206° |
| 2026-04-22 10:09 | 45.45155 | 9.27870 | 360 ft | 22 kts | 175° |
| 2026-04-22 10:09 | 45.44998 | 9.27892 | 360 ft | 23 kts | 174° |
| 2026-04-22 10:10 | 45.44841 | 9.27938 | 363 ft | 23 kts | 171° |
| 2026-04-22 10:10 | 45.44682 | 9.27958 | 360 ft | 23 kts | 176° |
| 2026-04-22 10:10 | 45.44514 | 9.27975 | 360 ft | 25 kts | 175° |
| 2026-04-22 10:10 | 45.44344 | 9.27990 | 360 ft | 24 kts | 175° |
| 2026-04-22 10:11 | 45.44178 | 9.28010 | 364 ft | 24 kts | 175° |
| 2026-04-22 10:11 | 45.44006 | 9.28028 | 360 ft | 25 kts | 176° |
| 2026-04-22 10:11 | 45.43827 | 9.28050 | 364 ft | 26 kts | 176° |
| 2026-04-22 10:11 | 45.43642 | 9.28069 | 363 ft | 27 kts | 175° |
| 2026-04-22 10:12 | 45.43488 | 9.28079 | 361 ft | 14 kts | 191° |
| 2026-04-22 10:12 | 45.43445 | 9.27983 | 361 ft | 11 kts | 265° |
| 2026-04-22 10:12 | 45.43443 | 9.27950 | 360 ft | 0 kts | 265° |
| 2026-04-22 10:13 | 45.43442 | 9.27940 | 363 ft | 0 kts | 265° |
| 2026-04-22 10:13 | 45.43441 | 9.27918 | 361 ft | 8 kts | 265° |
| 2026-04-22 10:13 | 45.43454 | 9.27843 | 365 ft | 7 kts | 304° |
| 2026-04-22 10:13 | 45.43491 | 9.27817 | 362 ft | 6 kts | 354° |
| 2026-04-22 10:14 | 45.43569 | 9.27807 | 364 ft | 25 kts | 356° |
| 2026-04-22 10:14 | 45.43985 | 9.27764 | 362 ft | 97 kts | 355° |
| 2026-04-22 10:14 | 45.44867 | 9.27670 | 363 ft | 155 kts | 355° |
| 2026-04-22 10:14 | 45.46042 | 9.27542 | 753 ft | 173 kts | 0° |
| 2026-04-22 10:15 | 45.47247 | 9.27419 | 1596 ft | 174 kts | 358° |
| 2026-04-22 10:15 | 45.48471 | 9.27255 | 2243 ft | 185 kts | 358° |
| 2026-04-22 10:15 | 45.49804 | 9.27092 | 2597 ft | 206 kts | 358° |
| 2026-04-22 10:15 | 45.51329 | 9.26949 | 2940 ft | 232 kts | 359° |
| 2026-04-22 10:16 | 45.52979 | 9.26788 | 3680 ft | 241 kts | 358° |
| 2026-04-22 10:16 | 45.54667 | 9.26592 | 4579 ft | 245 kts | 357° |
| 2026-04-22 10:16 | 45.56370 | 9.26385 | 5489 ft | 247 kts | 356° |
| 2026-04-22 10:16 | 45.58097 | 9.26178 | 5871 ft | 249 kts | 356° |
| 2026-04-22 10:17 | 45.59817 | 9.26107 | 5982 ft | 247 kts | 8° |
| 2026-04-22 10:17 | 45.61448 | 9.26811 | 6006 ft | 245 kts | 28° |
| 2026-04-22 10:17 | 45.62834 | 9.28355 | 6003 ft | 261 kts | 50° |
| 2026-04-22 10:17 | 45.63886 | 9.30512 | 5990 ft | 271 kts | 57° |
| 2026-04-22 10:18 | 45.64928 | 9.32773 | 6867 ft | 272 kts | 56° |
| 2026-04-22 10:18 | 45.65975 | 9.35034 | 7812 ft | 273 kts | 55° |
| 2026-04-22 10:18 | 45.67034 | 9.37309 | 8680 ft | 276 kts | 54° |
| 2026-04-22 10:18 | 45.68107 | 9.39613 | 9574 ft | 280 kts | 54° |
| 2026-04-22 10:19 | 45.69193 | 9.41946 | 10372 ft | 286 kts | 54° |
| 2026-04-22 10:19 | 45.70340 | 9.44410 | 10661 ft | 310 kts | 54° |
| 2026-04-22 10:19 | 45.71574 | 9.47066 | 11020 ft | 328 kts | 54° |
| 2026-04-22 10:19 | 45.72848 | 9.49821 | 11788 ft | 335 kts | 54° |
| 2026-04-22 10:20 | 45.74140 | 9.52621 | 12518 ft | 340 kts | 54° |
| 2026-04-22 10:20 | 45.75343 | 9.55565 | 13245 ft | 346 kts | 63° |
| 2026-04-22 10:20 | 45.76133 | 9.58850 | 13949 ft | 353 kts | 75° |
| 2026-04-22 10:20 | 45.76449 | 9.62375 | 14571 ft | 360 kts | 83° |
| 2026-04-22 10:21 | 45.76628 | 9.65971 | 15191 ft | 365 kts | 83° |
| 2026-04-22 10:21 | 45.76817 | 9.69615 | 15810 ft | 369 kts | 83° |
| 2026-04-22 10:21 | 45.77011 | 9.73302 | 16415 ft | 374 kts | 83° |
| 2026-04-22 10:21 | 45.77209 | 9.77040 | 16997 ft | 378 kts | 83° |
| 2026-04-22 10:22 | 45.77406 | 9.80770 | 17586 ft | 383 kts | 83° |
| 2026-04-22 10:22 | 45.77611 | 9.84647 | 18194 ft | 387 kts | 83° |
| 2026-04-22 10:22 | 45.77811 | 9.88463 | 18744 ft | 392 kts | 83° |
| 2026-04-22 10:22 | 45.78012 | 9.92376 | 19237 ft | 396 kts | 83° |
| 2026-04-22 10:23 | 45.78215 | 9.96334 | 19737 ft | 401 kts | 83° |
| 2026-04-22 10:23 | 45.78420 | 10.00342 | 20244 ft | 405 kts | 82° |
| 2026-04-22 10:23 | 45.78620 | 10.04390 | 20714 ft | 410 kts | 82° |
| 2026-04-22 10:23 | 45.78820 | 10.08485 | 21171 ft | 414 kts | 82° |
| 2026-04-22 10:24 | 45.79023 | 10.12629 | 21663 ft | 419 kts | 82° |
| 2026-04-22 10:24 | 45.79226 | 10.16814 | 22137 ft | 423 kts | 82° |
| 2026-04-22 10:24 | 45.79425 | 10.21049 | 22605 ft | 428 kts | 82° |
| 2026-04-22 10:24 | 45.79622 | 10.25323 | 23028 ft | 432 kts | 82° |
| 2026-04-22 10:25 | 45.79815 | 10.29641 | 23455 ft | 437 kts | 82° |
| 2026-04-22 10:25 | 45.80009 | 10.34006 | 23878 ft | 441 kts | 82° |
| 2026-04-22 10:25 | 45.80225 | 10.38404 | 24271 ft | 443 kts | 79° |
| 2026-04-22 10:25 | 45.80776 | 10.42739 | 24655 ft | 441 kts | 70° |
| 2026-04-22 10:26 | 45.81761 | 10.46875 | 25021 ft | 437 kts | 60° |
| 2026-04-22 10:26 | 45.83043 | 10.50815 | 25339 ft | 438 kts | 58° |
| 2026-04-22 10:26 | 45.84348 | 10.54778 | 25688 ft | 440 kts | 58° |
| 2026-04-22 10:26 | 45.85652 | 10.58762 | 26068 ft | 442 kts | 59° |
| 2026-04-22 10:27 | 45.86958 | 10.62763 | 26463 ft | 444 kts | 59° |
| 2026-04-22 10:27 | 45.88268 | 10.66790 | 26813 ft | 446 kts | 59° |
| 2026-04-22 10:27 | 45.89581 | 10.70844 | 27144 ft | 450 kts | 59° |
| 2026-04-22 10:27 | 45.90900 | 10.74929 | 27497 ft | 453 kts | 59° |
| 2026-04-22 10:28 | 45.92227 | 10.79049 | 27850 ft | 455 kts | 59° |
| 2026-04-22 10:28 | 45.93560 | 10.83184 | 28169 ft | 458 kts | 59° |
| 2026-04-22 10:28 | 45.94907 | 10.87354 | 28557 ft | 461 kts | 59° |
| 2026-04-22 10:28 | 45.96256 | 10.91542 | 28924 ft | 464 kts | 59° |
| 2026-04-22 10:29 | 45.97613 | 10.95766 | 29237 ft | 467 kts | 59° |
| 2026-04-22 10:29 | 45.98977 | 11.00023 | 29555 ft | 470 kts | 59° |
| 2026-04-22 10:29 | 46.00347 | 11.04310 | 29884 ft | 473 kts | 59° |
| 2026-04-22 10:29 | 46.01725 | 11.08624 | 30144 ft | 476 kts | 59° |
| 2026-04-22 10:30 | 46.02645 | 11.11499 | 30288 ft | 478 kts | 59° |
| 2026-04-22 10:30 | 46.04037 | 11.15856 | 30559 ft | 480 kts | 59° |
| 2026-04-22 10:30 | 46.05433 | 11.20237 | 30848 ft | 482 kts | 59° |
| 2026-04-22 10:30 | 46.06830 | 11.24638 | 31093 ft | 484 kts | 59° |
| 2026-04-22 10:31 | 46.08233 | 11.29057 | 31356 ft | 486 kts | 59° |
| 2026-04-22 10:31 | 46.09637 | 11.33486 | 31768 ft | 485 kts | 59° |
| 2026-04-22 10:31 | 46.11031 | 11.37903 | 32159 ft | 484 kts | 59° |
| 2026-04-22 10:31 | 46.12421 | 11.42323 | 32516 ft | 484 kts | 59° |
| 2026-04-22 10:32 | 46.13807 | 11.46733 | 32862 ft | 483 kts | 59° |
| 2026-04-22 10:32 | 46.15194 | 11.51147 | 33201 ft | 482 kts | 59° |
| 2026-04-22 10:32 | 46.16577 | 11.55554 | 33556 ft | 482 kts | 59° |
| 2026-04-22 10:32 | 46.17956 | 11.59956 | 33929 ft | 482 kts | 59° |
| 2026-04-22 10:33 | 46.19338 | 11.64366 | 34107 ft | 481 kts | 59° |
| 2026-04-22 10:33 | 46.20702 | 11.68737 | 34138 ft | 476 kts | 59° |
| 2026-04-22 10:33 | 46.23400 | 11.77428 | 34149 ft | 473 kts | 59° |
| 2026-04-22 10:34 | 46.26072 | 11.86040 | 34143 ft | 473 kts | 59° |
| 2026-04-22 10:34 | 46.28760 | 11.94723 | 34151 ft | 473 kts | 59° |
| 2026-04-22 10:35 | 46.31445 | 12.03414 | 34165 ft | 474 kts | 59° |
| 2026-04-22 10:35 | 46.34123 | 12.12118 | 34160 ft | 474 kts | 59° |
| 2026-04-22 10:36 | 46.36793 | 12.20843 | 34157 ft | 474 kts | 60° |
| 2026-04-22 10:36 | 46.39456 | 12.29589 | 34156 ft | 475 kts | 60° |
| 2026-04-22 10:37 | 46.43446 | 12.42734 | 34161 ft | 475 kts | 60° |
| 2026-04-22 10:38 | 46.46103 | 12.51509 | 34162 ft | 475 kts | 60° |
| 2026-04-22 10:38 | 46.48754 | 12.60295 | 34155 ft | 475 kts | 60° |
| 2026-04-22 10:39 | 46.51411 | 12.69148 | 34145 ft | 475 kts | 60° |
| 2026-04-22 10:39 | 46.54028 | 12.77891 | 34143 ft | 475 kts | 60° |
| 2026-04-22 10:40 | 46.56656 | 12.86698 | 34153 ft | 476 kts | 61° |
| 2026-04-22 10:40 | 46.59295 | 12.95580 | 34173 ft | 476 kts | 61° |
| 2026-04-22 10:41 | 46.61889 | 13.04358 | 34182 ft | 476 kts | 61° |
| 2026-04-22 10:41 | 46.64500 | 13.13209 | 34183 ft | 476 kts | 61° |
| 2026-04-22 10:42 | 46.67124 | 13.22120 | 34201 ft | 476 kts | 62° |
| 2026-04-22 10:42 | 46.69802 | 13.30913 | 34194 ft | 473 kts | 58° |
| 2026-04-22 10:43 | 46.72814 | 13.39336 | 34209 ft | 471 kts | 56° |
| 2026-04-22 10:43 | 46.75954 | 13.47714 | 34215 ft | 471 kts | 56° |
| 2026-04-22 10:44 | 46.79013 | 13.56174 | 34223 ft | 471 kts | 57° |
| 2026-04-22 10:44 | 46.81990 | 13.64696 | 34217 ft | 471 kts | 58° |
| 2026-04-22 10:45 | 46.84953 | 13.73228 | 34231 ft | 471 kts | 58° |
| 2026-04-22 10:45 | 46.87941 | 13.81739 | 34227 ft | 471 kts | 57° |
| 2026-04-22 10:46 | 46.90927 | 13.90256 | 34232 ft | 471 kts | 58° |
| 2026-04-22 10:46 | 46.93890 | 13.98784 | 34230 ft | 470 kts | 58° |
| 2026-04-22 10:47 | 46.96849 | 14.07315 | 34239 ft | 470 kts | 58° |
| 2026-04-22 10:47 | 46.99802 | 14.15851 | 34246 ft | 469 kts | 58° |
| 2026-04-22 10:48 | 47.02746 | 14.24383 | 34247 ft | 469 kts | 59° |
| 2026-04-22 10:48 | 47.05684 | 14.32924 | 34251 ft | 469 kts | 58° |
| 2026-04-22 10:49 | 47.08612 | 14.41469 | 34245 ft | 469 kts | 59° |
| 2026-04-22 10:49 | 47.11378 | 14.50134 | 34239 ft | 472 kts | 67° |
| 2026-04-22 10:50 | 47.13091 | 14.59496 | 34237 ft | 475 kts | 72° |
| 2026-04-22 10:50 | 47.14697 | 14.68830 | 34231 ft | 475 kts | 72° |
| 2026-04-22 10:51 | 47.16299 | 14.78228 | 34226 ft | 474 kts | 72° |
| 2026-04-22 10:51 | 47.17907 | 14.87663 | 34190 ft | 477 kts | 72° |
| 2026-04-22 10:51 | 47.18716 | 14.92410 | 33386 ft | 482 kts | 72° |
| 2026-04-22 10:52 | 47.19538 | 14.97244 | 32320 ft | 490 kts | 73° |
| 2026-04-22 10:52 | 47.20353 | 15.02091 | 31668 ft | 487 kts | 73° |
| 2026-04-22 10:52 | 47.21153 | 15.06902 | 31080 ft | 482 kts | 73° |
| 2026-04-22 10:52 | 47.21944 | 15.11660 | 30517 ft | 477 kts | 73° |
| 2026-04-22 10:53 | 47.22731 | 15.16375 | 29910 ft | 471 kts | 73° |
| 2026-04-22 10:53 | 47.23502 | 15.20995 | 28886 ft | 460 kts | 73° |
| 2026-04-22 10:53 | 47.24257 | 15.25519 | 27931 ft | 450 kts | 74° |
| 2026-04-22 10:53 | 47.24988 | 15.29927 | 27087 ft | 438 kts | 75° |
| 2026-04-22 10:54 | 47.25700 | 15.34247 | 26527 ft | 429 kts | 75° |
| 2026-04-22 10:54 | 47.26393 | 15.38461 | 26260 ft | 418 kts | 75° |
| 2026-04-22 10:54 | 47.27073 | 15.42595 | 25809 ft | 413 kts | 75° |
| 2026-04-22 10:54 | 47.27745 | 15.46679 | 25323 ft | 408 kts | 75° |
| 2026-04-22 10:55 | 47.28407 | 15.50715 | 24851 ft | 403 kts | 75° |
| 2026-04-22 10:55 | 47.29060 | 15.54708 | 24385 ft | 399 kts | 75° |
| 2026-04-22 10:55 | 47.29707 | 15.58663 | 23912 ft | 395 kts | 75° |
| 2026-04-22 10:55 | 47.30345 | 15.62586 | 23376 ft | 392 kts | 75° |
| 2026-04-22 10:56 | 47.30973 | 15.66459 | 22904 ft | 386 kts | 75° |
| 2026-04-22 10:56 | 47.31594 | 15.70287 | 22435 ft | 382 kts | 75° |
| 2026-04-22 10:56 | 47.32207 | 15.74077 | 21952 ft | 379 kts | 75° |
| 2026-04-22 10:56 | 47.32814 | 15.77839 | 21476 ft | 376 kts | 75° |
| 2026-04-22 10:57 | 47.33413 | 15.81573 | 21006 ft | 373 kts | 75° |
| 2026-04-22 10:57 | 47.34006 | 15.85288 | 20517 ft | 371 kts | 75° |
| 2026-04-22 10:57 | 47.34595 | 15.88988 | 20034 ft | 370 kts | 75° |
| 2026-04-22 10:57 | 47.35182 | 15.92665 | 19562 ft | 368 kts | 75° |
| 2026-04-22 10:58 | 47.35769 | 15.96327 | 19087 ft | 366 kts | 74° |
| 2026-04-22 10:58 | 47.36652 | 15.99803 | 18627 ft | 361 kts | 58° |
| 2026-04-22 10:58 | 47.38130 | 16.02742 | 18126 ft | 355 kts | 42° |
| 2026-04-22 10:58 | 47.40058 | 16.04902 | 17869 ft | 343 kts | 26° |
| 2026-04-22 10:59 | 47.42233 | 16.06242 | 17586 ft | 337 kts | 15° |
| 2026-04-22 10:59 | 47.44452 | 16.07333 | 17305 ft | 335 kts | 16° |
| 2026-04-22 10:59 | 47.46662 | 16.08423 | 17023 ft | 335 kts | 16° |
| 2026-04-22 10:59 | 47.48864 | 16.09516 | 16743 ft | 333 kts | 16° |
| 2026-04-22 11:00 | 47.51055 | 16.10607 | 16466 ft | 332 kts | 16° |
| 2026-04-22 11:00 | 47.53241 | 16.11699 | 16188 ft | 331 kts | 16° |
| 2026-04-22 11:00 | 47.55417 | 16.12788 | 15912 ft | 330 kts | 16° |
| 2026-04-22 11:00 | 47.57586 | 16.13870 | 15640 ft | 328 kts | 15° |
| 2026-04-22 11:01 | 47.59748 | 16.14944 | 15362 ft | 327 kts | 16° |
| 2026-04-22 11:01 | 47.61902 | 16.16016 | 15081 ft | 326 kts | 16° |
| 2026-04-22 11:01 | 47.64044 | 16.17085 | 14816 ft | 324 kts | 15° |
| 2026-04-22 11:01 | 47.66179 | 16.18150 | 14548 ft | 324 kts | 16° |
| 2026-04-22 11:02 | 47.68309 | 16.19209 | 14275 ft | 322 kts | 16° |
| 2026-04-22 11:02 | 47.70433 | 16.20267 | 14003 ft | 321 kts | 16° |
| 2026-04-22 11:02 | 47.72547 | 16.21324 | 13710 ft | 320 kts | 16° |
| 2026-04-22 11:02 | 47.74620 | 16.22369 | 13443 ft | 318 kts | 18° |
| 2026-04-22 11:03 | 47.76625 | 16.23851 | 13175 ft | 319 kts | 32° |
| 2026-04-22 11:03 | 47.78312 | 16.25974 | 12905 ft | 319 kts | 45° |
| 2026-04-22 11:03 | 47.79813 | 16.28393 | 12644 ft | 317 kts | 45° |
| 2026-04-22 11:03 | 47.81310 | 16.30790 | 12380 ft | 315 kts | 45° |
| 2026-04-22 11:04 | 47.82797 | 16.33163 | 12121 ft | 313 kts | 45° |
| 2026-04-22 11:04 | 47.84278 | 16.35523 | 11847 ft | 311 kts | 45° |
| 2026-04-22 11:04 | 47.85747 | 16.37866 | 11603 ft | 308 kts | 45° |
| 2026-04-22 11:04 | 47.87191 | 16.40207 | 11343 ft | 306 kts | 48° |
| 2026-04-22 11:05 | 47.88346 | 16.42861 | 11090 ft | 306 kts | 62° |
| 2026-04-22 11:05 | 47.89060 | 16.45844 | 10784 ft | 306 kts | 72° |
| 2026-04-22 11:05 | 47.89509 | 16.48935 | 10499 ft | 306 kts | 85° |
| 2026-04-22 11:05 | 47.89119 | 16.52006 | 10338 ft | 302 kts | 113° |
| 2026-04-22 11:06 | 47.87859 | 16.54455 | 10183 ft | 298 kts | 140° |
| 2026-04-22 11:06 | 47.86013 | 16.55821 | 9872 ft | 299 kts | 163° |
| 2026-04-22 11:06 | 47.84016 | 16.56653 | 9517 ft | 297 kts | 163° |
| 2026-04-22 11:06 | 47.82012 | 16.57472 | 9013 ft | 301 kts | 163° |
| 2026-04-22 11:07 | 47.80032 | 16.58285 | 8683 ft | 297 kts | 163° |
| 2026-04-22 11:07 | 47.78063 | 16.59099 | 8481 ft | 289 kts | 163° |
| 2026-04-22 11:07 | 47.76163 | 16.59887 | 8323 ft | 279 kts | 163° |
| 2026-04-22 11:07 | 47.74317 | 16.60654 | 8123 ft | 273 kts | 163° |
| 2026-04-22 11:08 | 47.72494 | 16.61408 | 8011 ft | 271 kts | 164° |
| 2026-04-22 11:08 | 47.70675 | 16.62161 | 8008 ft | 271 kts | 163° |
| 2026-04-22 11:08 | 47.68966 | 16.63281 | 8010 ft | 268 kts | 140° |
| 2026-04-22 11:08 | 47.67795 | 16.65364 | 8014 ft | 262 kts | 111° |
| 2026-04-22 11:09 | 47.67394 | 16.67940 | 8012 ft | 255 kts | 84° |
| 2026-04-22 11:09 | 47.67712 | 16.70495 | 7812 ft | 252 kts | 71° |
| 2026-04-22 11:09 | 47.68440 | 16.72852 | 7412 ft | 246 kts | 46° |
| 2026-04-22 11:09 | 47.69763 | 16.74301 | 7043 ft | 239 kts | 19° |
| 2026-04-22 11:10 | 47.71384 | 16.74630 | 6668 ft | 236 kts | 352° |
| 2026-04-22 11:10 | 47.72977 | 16.74049 | 6244 ft | 236 kts | 345° |
| 2026-04-22 11:10 | 47.74556 | 16.73393 | 5862 ft | 235 kts | 345° |
| 2026-04-22 11:10 | 47.76129 | 16.72738 | 5477 ft | 234 kts | 345° |
| 2026-04-22 11:11 | 47.77690 | 16.72089 | 5104 ft | 232 kts | 345° |
| 2026-04-22 11:11 | 47.79234 | 16.71449 | 4793 ft | 228 kts | 345° |
| 2026-04-22 11:11 | 47.80751 | 16.70821 | 4567 ft | 226 kts | 345° |
| 2026-04-22 11:11 | 47.82264 | 16.70195 | 4356 ft | 225 kts | 345° |
| 2026-04-22 11:12 | 47.83774 | 16.69571 | 4164 ft | 225 kts | 345° |
| 2026-04-22 11:12 | 47.85279 | 16.68949 | 3970 ft | 223 kts | 345° |
| 2026-04-22 11:12 | 47.86747 | 16.68350 | 3887 ft | 215 kts | 345° |
| 2026-04-22 11:12 | 47.88151 | 16.67782 | 3789 ft | 205 kts | 345° |
| 2026-04-22 11:13 | 47.90587 | 16.66798 | 3648 ft | 204 kts | 345° |
| 2026-04-22 11:13 | 47.91954 | 16.66245 | 3559 ft | 203 kts | 345° |
| 2026-04-22 11:13 | 47.93312 | 16.65694 | 3448 ft | 203 kts | 345° |
| 2026-04-22 11:14 | 47.94666 | 16.65130 | 3281 ft | 201 kts | 345° |
| 2026-04-22 11:14 | 47.96019 | 16.64560 | 3119 ft | 202 kts | 345° |
| 2026-04-22 11:14 | 47.97373 | 16.63988 | 3022 ft | 202 kts | 344° |
| 2026-04-22 11:14 | 47.98696 | 16.63424 | 2811 ft | 190 kts | 344° |
| 2026-04-22 11:15 | 47.99901 | 16.62914 | 2593 ft | 170 kts | 344° |
| 2026-04-22 11:15 | 48.00978 | 16.62459 | 2381 ft | 152 kts | 344° |
| 2026-04-22 11:15 | 48.01940 | 16.62055 | 2166 ft | 138 kts | 344° |
| 2026-04-22 11:15 | 48.02879 | 16.61660 | 1979 ft | 139 kts | 343° |
| 2026-04-22 11:16 | 48.03810 | 16.61279 | 1793 ft | 139 kts | 345° |
| 2026-04-22 11:16 | 48.04732 | 16.60897 | 1578 ft | 137 kts | 345° |
| 2026-04-22 11:16 | 48.05655 | 16.60487 | 1369 ft | 139 kts | 343° |
| 2026-04-22 11:16 | 48.06584 | 16.60104 | 1167 ft | 139 kts | 343° |
| 2026-04-22 11:17 | 48.07491 | 16.59722 | 936 ft | 133 kts | 342° |
| 2026-04-22 11:17 | 48.08375 | 16.59349 | 735 ft | 129 kts | 342° |
| 2026-04-22 11:17 | 48.09206 | 16.58990 | 619 ft | 117 kts | 342° |
| 2026-04-22 11:17 | 48.09839 | 16.58722 | 617 ft | 70 kts | 344° |
| 2026-04-22 11:18 | 48.10199 | 16.58569 | 617 ft | 46 kts | 344° |
| 2026-04-22 11:18 | 48.10420 | 16.58371 | 617 ft | 30 kts | 300° |
| 2026-04-22 11:18 | 48.10491 | 16.58190 | 618 ft | 15 kts | 311° |
| 2026-04-22 11:18 | 48.10581 | 16.58129 | 615 ft | 15 kts | 346° |
| 2026-04-22 11:19 | 48.10684 | 16.58086 | 612 ft | 16 kts | 344° |
| 2026-04-22 11:19 | 48.10796 | 16.58038 | 612 ft | 17 kts | 344° |
| 2026-04-22 11:19 | 48.10916 | 16.57984 | 617 ft | 18 kts | 336° |
| 2026-04-22 11:19 | 48.11010 | 16.57851 | 616 ft | 19 kts | 314° |
| 2026-04-22 11:20 | 48.11106 | 16.57768 | 620 ft | 16 kts | 340° |
| 2026-04-22 11:20 | 48.11182 | 16.57641 | 609 ft | 18 kts | 296° |
| 2026-04-22 11:20 | 48.11237 | 16.57470 | 616 ft | 19 kts | 296° |
| 2026-04-22 11:20 | 48.11297 | 16.57289 | 612 ft | 20 kts | 297° |
| 2026-04-22 11:21 | 48.11357 | 16.57099 | 621 ft | 20 kts | 296° |
| 2026-04-22 11:21 | 48.11422 | 16.56906 | 611 ft | 21 kts | 296° |
| 2026-04-22 11:21 | 48.11488 | 16.56706 | 616 ft | 22 kts | 297° |
| 2026-04-22 11:21 | 48.11553 | 16.56499 | 614 ft | 22 kts | 296° |
| 2026-04-22 11:22 | 48.11620 | 16.56300 | 623 ft | 12 kts | 296° |
| 2026-04-22 11:22 | 48.11679 | 16.56260 | 613 ft | 11 kts | 18° |
| 2026-04-22 11:22 | 48.11746 | 16.56310 | 613 ft | 10 kts | 32° |
| 2026-04-22 11:22 | 48.11750 | 16.56393 | 620 ft | 8 kts | 117° |
| 2026-04-22 11:23 | 48.11727 | 16.56460 | 615 ft | 7 kts | 117° |
| 2026-04-22 11:23 | 48.11704 | 16.56532 | 617 ft | 11 kts | 116° |
| 2026-04-22 11:23 | 48.11676 | 16.56628 | 614 ft | 4 kts | 95° |
| 2026-04-22 11:23 | 48.11701 | 16.56653 | 620 ft | 10 kts | 24° |
| 2026-04-22 11:24 | 48.11742 | 16.56680 | 609 ft | 2 kts | 25° |